<?xml version="1.0" encoding="UTF-8" standalone="no" ?>
<gpx xmlns="http://www.topografix.com/GPX/1/1" xmlns:xsi="http://www.w3.org/2001/XMLSchema-instance" xsi:schemaLocation="http://www.topografix.com/GPX/1/1 http://www.topografix.com/GPX/1/1/gpx.xsd" version="1.1" creator="VisuGPX - https://www.visugpx.com">
  <metadata>
    <name>Col de Grimone-La Toussière (Drôme)</name>
    <desc><![CDATA[Randonnée difficile au départ du Col de Grimone réalisée par le Caf Grenoble Isère]]></desc>
  </metadata>
  <trk>
    <name><![CDATA[Col de Grimone-La Toussière - D+]]></name>
    <cmt><![CDATA[Carte IGN TOP25 : 3237OT - Glandasse/Col de la Croix-Haute]]></cmt>
    <desc><![CDATA[Rando Plus le 8 mai 2021]]></desc>
    <trkseg>
      <trkpt lat="44.69136" lon="5.65408">
        <ele>1313</ele>
        <time>2021-05-08T07:00:00.573Z</time>
      </trkpt>
      <trkpt lat="44.69142" lon="5.65402">
        <ele>1314</ele>
        <time>2021-05-08T07:00:11.988Z</time>
      </trkpt>
      <trkpt lat="44.69116" lon="5.65356">
        <ele>1320</ele>
        <time>2021-05-08T07:01:23.536Z</time>
      </trkpt>
      <trkpt lat="44.69107" lon="5.65327">
        <ele>1325</ele>
        <time>2021-05-08T07:02:17.822Z</time>
      </trkpt>
      <trkpt lat="44.69081" lon="5.65305">
        <ele>1334</ele>
        <time>2021-05-08T07:03:33.582Z</time>
      </trkpt>
      <trkpt lat="44.69076" lon="5.65267">
        <ele>1341</ele>
        <time>2021-05-08T07:04:37.928Z</time>
      </trkpt>
      <trkpt lat="44.69059" lon="5.65255">
        <ele>1348</ele>
        <time>2021-05-08T07:05:22.908Z</time>
      </trkpt>
      <trkpt lat="44.69072" lon="5.65178">
        <ele>1361</ele>
        <time>2021-05-08T07:07:18.530Z</time>
      </trkpt>
      <trkpt lat="44.6908" lon="5.65163">
        <ele>1361</ele>
        <time>2021-05-08T07:07:38.865Z</time>
      </trkpt>
      <trkpt lat="44.69078" lon="5.65143">
        <ele>1367</ele>
        <time>2021-05-08T07:07:57.786Z</time>
      </trkpt>
      <trkpt lat="44.69088" lon="5.65054">
        <ele>1370</ele>
        <time>2021-05-08T07:09:18.487Z</time>
      </trkpt>
      <trkpt lat="44.69088" lon="5.65004">
        <ele>1374</ele>
        <time>2021-05-08T07:10:02.695Z</time>
      </trkpt>
      <trkpt lat="44.69102" lon="5.64964">
        <ele>1374</ele>
        <time>2021-05-08T07:10:39.677Z</time>
      </trkpt>
      <trkpt lat="44.69096" lon="5.64891">
        <ele>1377</ele>
        <time>2021-05-08T07:11:41.669Z</time>
      </trkpt>
      <trkpt lat="44.69087" lon="5.64869">
        <ele>1377</ele>
        <time>2021-05-08T07:12:03.175Z</time>
      </trkpt>
      <trkpt lat="44.69077" lon="5.64808">
        <ele>1378</ele>
        <time>2021-05-08T07:13:00.600Z</time>
      </trkpt>
      <trkpt lat="44.69065" lon="5.64787">
        <ele>1382</ele>
        <time>2021-05-08T07:13:24.220Z</time>
      </trkpt>
      <trkpt lat="44.69048" lon="5.64774">
        <ele>1384</ele>
        <time>2021-05-08T07:13:48.385Z</time>
      </trkpt>
      <trkpt lat="44.69022" lon="5.64735">
        <ele>1384</ele>
        <time>2021-05-08T07:14:31.148Z</time>
      </trkpt>
      <trkpt lat="44.68996" lon="5.64727">
        <ele>1384</ele>
        <time>2021-05-08T07:15:01.685Z</time>
      </trkpt>
      <trkpt lat="44.6899" lon="5.64716">
        <ele>1378</ele>
        <time>2021-05-08T07:15:13.107Z</time>
      </trkpt>
      <trkpt lat="44.6898" lon="5.64658">
        <ele>1377</ele>
        <time>2021-05-08T07:16:00.558Z</time>
      </trkpt>
      <trkpt lat="44.68981" lon="5.64575">
        <ele>1377</ele>
        <time>2021-05-08T07:17:05.811Z</time>
      </trkpt>
      <trkpt lat="44.68996" lon="5.64549">
        <ele>1377</ele>
        <time>2021-05-08T07:17:55.582Z</time>
      </trkpt>
      <trkpt lat="44.68991" lon="5.64544">
        <ele>1380</ele>
        <time>2021-05-08T07:18:08.390Z</time>
      </trkpt>
      <trkpt lat="44.68996" lon="5.64536">
        <ele>1382</ele>
        <time>2021-05-08T07:18:23.606Z</time>
      </trkpt>
      <trkpt lat="44.68984" lon="5.64509">
        <ele>1391</ele>
        <time>2021-05-08T07:19:03.611Z</time>
      </trkpt>
      <trkpt lat="44.68928" lon="5.64467">
        <ele>1397</ele>
        <time>2021-05-08T07:20:44.561Z</time>
      </trkpt>
      <trkpt lat="44.68916" lon="5.64439">
        <ele>1404</ele>
        <time>2021-05-08T07:21:28.299Z</time>
      </trkpt>
      <trkpt lat="44.68895" lon="5.64444">
        <ele>1413</ele>
        <time>2021-05-08T07:22:06.356Z</time>
      </trkpt>
      <trkpt lat="44.68878" lon="5.64382">
        <ele>1415</ele>
        <time>2021-05-08T07:23:16.630Z</time>
      </trkpt>
      <trkpt lat="44.68861" lon="5.64372">
        <ele>1423</ele>
        <time>2021-05-08T07:23:45.345Z</time>
      </trkpt>
      <trkpt lat="44.68849" lon="5.6435">
        <ele>1424</ele>
        <time>2021-05-08T07:24:41.239Z</time>
      </trkpt>
      <trkpt lat="44.68837" lon="5.64341">
        <ele>1427</ele>
        <time>2021-05-08T07:25:11.322Z</time>
      </trkpt>
      <trkpt lat="44.68819" lon="5.6434">
        <ele>1437</ele>
        <time>2021-05-08T07:25:42.293Z</time>
      </trkpt>
      <trkpt lat="44.68798" lon="5.64328">
        <ele>1441</ele>
        <time>2021-05-08T07:26:19.372Z</time>
      </trkpt>
      <trkpt lat="44.68756" lon="5.64273">
        <ele>1443</ele>
        <time>2021-05-08T07:27:23.653Z</time>
      </trkpt>
      <trkpt lat="44.68754" lon="5.6425">
        <ele>1443</ele>
        <time>2021-05-08T07:27:42.069Z</time>
      </trkpt>
      <trkpt lat="44.68777" lon="5.64195">
        <ele>1437</ele>
        <time>2021-05-08T07:28:32.743Z</time>
      </trkpt>
      <trkpt lat="44.68819" lon="5.64184">
        <ele>1440</ele>
        <time>2021-05-08T07:29:23.109Z</time>
      </trkpt>
      <trkpt lat="44.68838" lon="5.64198">
        <ele>1440</ele>
        <time>2021-05-08T07:29:47.819Z</time>
      </trkpt>
      <trkpt lat="44.68854" lon="5.64174">
        <ele>1440</ele>
        <time>2021-05-08T07:30:39.452Z</time>
      </trkpt>
      <trkpt lat="44.68824" lon="5.64132">
        <ele>1456</ele>
        <time>2021-05-08T07:32:14.538Z</time>
      </trkpt>
      <trkpt lat="44.68824" lon="5.64122">
        <ele>1461</ele>
        <time>2021-05-08T07:32:30.868Z</time>
      </trkpt>
      <trkpt lat="44.68811" lon="5.64112">
        <ele>1465</ele>
        <time>2021-05-08T07:33:03.359Z</time>
      </trkpt>
      <trkpt lat="44.68762" lon="5.64139">
        <ele>1469</ele>
        <time>2021-05-08T07:34:41.966Z</time>
      </trkpt>
      <trkpt lat="44.68731" lon="5.6417">
        <ele>1483</ele>
        <time>2021-05-08T07:35:58.945Z</time>
      </trkpt>
      <trkpt lat="44.68688" lon="5.64251">
        <ele>1494</ele>
        <time>2021-05-08T07:38:19.263Z</time>
      </trkpt>
      <trkpt lat="44.68672" lon="5.64282">
        <ele>1504</ele>
        <time>2021-05-08T07:39:34.327Z</time>
      </trkpt>
      <trkpt lat="44.6867" lon="5.64312">
        <ele>1505</ele>
        <time>2021-05-08T07:40:31.178Z</time>
      </trkpt>
      <trkpt lat="44.68661" lon="5.64319">
        <ele>1512</ele>
        <time>2021-05-08T07:40:55.834Z</time>
      </trkpt>
      <trkpt lat="44.68631" lon="5.64403">
        <ele>1531</ele>
        <time>2021-05-08T07:43:22.972Z</time>
      </trkpt>
      <trkpt lat="44.68616" lon="5.64298">
        <ele>1547</ele>
        <time>2021-05-08T07:45:40.619Z</time>
      </trkpt>
      <trkpt lat="44.68599" lon="5.64392">
        <ele>1558</ele>
        <time>2021-05-08T07:47:47.200Z</time>
      </trkpt>
      <trkpt lat="44.68591" lon="5.64367">
        <ele>1564</ele>
        <time>2021-05-08T07:48:22.248Z</time>
      </trkpt>
      <trkpt lat="44.68572" lon="5.64197">
        <ele>1588</ele>
        <time>2021-05-08T07:51:31.660Z</time>
      </trkpt>
      <trkpt lat="44.68578" lon="5.64127">
        <ele>1588</ele>
        <time>2021-05-08T07:52:26.930Z</time>
      </trkpt>
      <trkpt lat="44.68598" lon="5.64049">
        <ele>1588</ele>
        <time>2021-05-08T07:53:32.593Z</time>
      </trkpt>
      <trkpt lat="44.68556" lon="5.64077">
        <ele>1586</ele>
        <time>2021-05-08T07:54:23.999Z</time>
      </trkpt>
      <trkpt lat="44.68519" lon="5.6411">
        <ele>1585</ele>
        <time>2021-05-08T07:55:14.538Z</time>
      </trkpt>
      <trkpt lat="44.68477" lon="5.64137">
        <ele>1579</ele>
        <time>2021-05-08T07:56:05.857Z</time>
      </trkpt>
      <trkpt lat="44.68441" lon="5.64176">
        <ele>1579</ele>
        <time>2021-05-08T07:56:56.944Z</time>
      </trkpt>
      <trkpt lat="44.68381" lon="5.64218">
        <ele>1579</ele>
        <time>2021-05-08T07:58:17.843Z</time>
      </trkpt>
      <trkpt lat="44.68295" lon="5.64317">
        <ele>1587</ele>
        <time>2021-05-08T08:00:28.858Z</time>
      </trkpt>
      <trkpt lat="44.6819" lon="5.64365">
        <ele>1587</ele>
        <time>2021-05-08T08:02:41.796Z</time>
      </trkpt>
      <trkpt lat="44.68166" lon="5.64351">
        <ele>1593</ele>
        <time>2021-05-08T08:03:26.345Z</time>
      </trkpt>
      <trkpt lat="44.68151" lon="5.64333">
        <ele>1599</ele>
        <time>2021-05-08T08:03:58.710Z</time>
      </trkpt>
      <trkpt lat="44.67978" lon="5.64252">
        <ele>1625</ele>
        <time>2021-05-08T08:08:51.333Z</time>
      </trkpt>
      <trkpt lat="44.67938" lon="5.64183">
        <ele>1636</ele>
        <time>2021-05-08T08:10:55.861Z</time>
      </trkpt>
      <trkpt lat="44.67911" lon="5.64163">
        <ele>1645</ele>
        <time>2021-05-08T08:12:02.339Z</time>
      </trkpt>
      <trkpt lat="44.67852" lon="5.64159">
        <ele>1658</ele>
        <time>2021-05-08T08:13:50.627Z</time>
      </trkpt>
      <trkpt lat="44.67808" lon="5.64168">
        <ele>1665</ele>
        <time>2021-05-08T08:16:33.995Z</time>
      </trkpt>
      <trkpt lat="44.67761" lon="5.64155">
        <ele>1696</ele>
        <time>2021-05-08T08:19:40.333Z</time>
      </trkpt>
      <trkpt lat="44.67739" lon="5.64132">
        <ele>1697</ele>
        <time>2021-05-08T08:20:13.562Z</time>
      </trkpt>
      <trkpt lat="44.6775" lon="5.64117">
        <ele>1700</ele>
        <time>2021-05-08T08:20:33.126Z</time>
      </trkpt>
      <trkpt lat="44.67777" lon="5.64097">
        <ele>1701</ele>
        <time>2021-05-08T08:21:29.260Z</time>
      </trkpt>
      <trkpt lat="44.67795" lon="5.64073">
        <ele>1711</ele>
        <time>2021-05-08T08:22:09.766Z</time>
      </trkpt>
      <trkpt lat="44.67812" lon="5.64074">
        <ele>1712</ele>
        <time>2021-05-08T08:22:36.134Z</time>
      </trkpt>
      <trkpt lat="44.67831" lon="5.6404">
        <ele>1712</ele>
        <time>2021-05-08T08:23:10.696Z</time>
      </trkpt>
      <trkpt lat="44.67812" lon="5.64074">
        <ele>1712</ele>
        <time>2021-05-08T08:23:50.013Z</time>
      </trkpt>
      <trkpt lat="44.67795" lon="5.64073">
        <ele>1711</ele>
        <time>2021-05-08T08:24:10.753Z</time>
      </trkpt>
      <trkpt lat="44.67777" lon="5.64097">
        <ele>1701</ele>
        <time>2021-05-08T08:24:45.732Z</time>
      </trkpt>
      <trkpt lat="44.6775" lon="5.64117">
        <ele>1701</ele>
        <time>2021-05-08T08:25:19.022Z</time>
      </trkpt>
      <trkpt lat="44.67739" lon="5.64132">
        <ele>1700</ele>
        <time>2021-05-08T08:25:36.418Z</time>
      </trkpt>
      <trkpt lat="44.67701" lon="5.64216">
        <ele>1699</ele>
        <time>2021-05-08T08:26:54.865Z</time>
      </trkpt>
      <trkpt lat="44.67612" lon="5.64354">
        <ele>1699</ele>
        <time>2021-05-08T08:29:22.590Z</time>
      </trkpt>
      <trkpt lat="44.67589" lon="5.64405">
        <ele>1698</ele>
        <time>2021-05-08T08:30:10.452Z</time>
      </trkpt>
      <trkpt lat="44.67556" lon="5.6445">
        <ele>1698</ele>
        <time>2021-05-08T08:31:15.176Z</time>
      </trkpt>
      <trkpt lat="44.67542" lon="5.64487">
        <ele>1684</ele>
        <time>2021-05-08T08:31:52.492Z</time>
      </trkpt>
      <trkpt lat="44.6753" lon="5.645">
        <ele>1684</ele>
        <time>2021-05-08T08:32:10.895Z</time>
      </trkpt>
      <trkpt lat="44.67478" lon="5.64504">
        <ele>1684</ele>
        <time>2021-05-08T08:33:09.414Z</time>
      </trkpt>
      <trkpt lat="44.67425" lon="5.64527">
        <ele>1683</ele>
        <time>2021-05-08T08:34:11.374Z</time>
      </trkpt>
      <trkpt lat="44.67405" lon="5.64538">
        <ele>1683</ele>
        <time>2021-05-08T08:34:34.980Z</time>
      </trkpt>
      <trkpt lat="44.6737" lon="5.6458">
        <ele>1683</ele>
        <time>2021-05-08T08:35:38.279Z</time>
      </trkpt>
      <trkpt lat="44.67345" lon="5.6464">
        <ele>1666</ele>
        <time>2021-05-08T08:37:45.235Z</time>
      </trkpt>
      <trkpt lat="44.67336" lon="5.64685">
        <ele>1650</ele>
        <time>2021-05-08T08:39:06.377Z</time>
      </trkpt>
      <trkpt lat="44.6733" lon="5.64804">
        <ele>1621</ele>
        <time>2021-05-08T08:42:21.427Z</time>
      </trkpt>
      <trkpt lat="44.67318" lon="5.64818">
        <ele>1615</ele>
        <time>2021-05-08T08:42:57.009Z</time>
      </trkpt>
      <trkpt lat="44.67296" lon="5.64827">
        <ele>1606</ele>
        <time>2021-05-08T08:43:50.456Z</time>
      </trkpt>
      <trkpt lat="44.67245" lon="5.6483">
        <ele>1588</ele>
        <time>2021-05-08T08:45:55.376Z</time>
      </trkpt>
      <trkpt lat="44.67232" lon="5.64864">
        <ele>1576</ele>
        <time>2021-05-08T08:47:10.219Z</time>
      </trkpt>
      <trkpt lat="44.67219" lon="5.64872">
        <ele>1569</ele>
        <time>2021-05-08T08:47:41.295Z</time>
      </trkpt>
      <trkpt lat="44.67203" lon="5.64871">
        <ele>1564</ele>
        <time>2021-05-08T08:48:11.299Z</time>
      </trkpt>
      <trkpt lat="44.67174" lon="5.64841">
        <ele>1556</ele>
        <time>2021-05-08T08:49:28.173Z</time>
      </trkpt>
      <trkpt lat="44.67138" lon="5.6483">
        <ele>1540</ele>
        <time>2021-05-08T08:51:02.571Z</time>
      </trkpt>
      <trkpt lat="44.67084" lon="5.64869">
        <ele>1517</ele>
        <time>2021-05-08T08:53:44.385Z</time>
      </trkpt>
      <trkpt lat="44.67022" lon="5.64881">
        <ele>1489</ele>
        <time>2021-05-08T08:56:23.788Z</time>
      </trkpt>
      <trkpt lat="44.66999" lon="5.64898">
        <ele>1482</ele>
        <time>2021-05-08T08:56:54.436Z</time>
      </trkpt>
      <trkpt lat="44.66966" lon="5.64944">
        <ele>1481</ele>
        <time>2021-05-08T08:57:46.318Z</time>
      </trkpt>
      <trkpt lat="44.66947" lon="5.64944">
        <ele>1481</ele>
        <time>2021-05-08T08:58:07.570Z</time>
      </trkpt>
      <trkpt lat="44.66908" lon="5.64996">
        <ele>1478</ele>
        <time>2021-05-08T08:59:07.609Z</time>
      </trkpt>
      <trkpt lat="44.66899" lon="5.65038">
        <ele>1481</ele>
        <time>2021-05-08T08:59:42.805Z</time>
      </trkpt>
      <trkpt lat="44.66895" lon="5.65092">
        <ele>1478</ele>
        <time>2021-05-08T09:00:26.746Z</time>
      </trkpt>
      <trkpt lat="44.66854" lon="5.65144">
        <ele>1474</ele>
        <time>2021-05-08T09:01:29.898Z</time>
      </trkpt>
      <trkpt lat="44.66853" lon="5.65202">
        <ele>1470</ele>
        <time>2021-05-08T09:02:16.165Z</time>
      </trkpt>
      <trkpt lat="44.66845" lon="5.65261">
        <ele>1470</ele>
        <time>2021-05-08T09:03:05.181Z</time>
      </trkpt>
      <trkpt lat="44.66828" lon="5.65276">
        <ele>1464</ele>
        <time>2021-05-08T09:03:28.534Z</time>
      </trkpt>
      <trkpt lat="44.66807" lon="5.65363">
        <ele>1459</ele>
        <time>2021-05-08T09:04:44.814Z</time>
      </trkpt>
      <trkpt lat="44.6677" lon="5.65437">
        <ele>1452</ele>
        <time>2021-05-08T09:06:04.483Z</time>
      </trkpt>
      <trkpt lat="44.66733" lon="5.65477">
        <ele>1444</ele>
        <time>2021-05-08T09:07:00.732Z</time>
      </trkpt>
      <trkpt lat="44.66666" lon="5.65492">
        <ele>1438</ele>
        <time>2021-05-08T09:08:16.525Z</time>
      </trkpt>
      <trkpt lat="44.66623" lon="5.65492">
        <ele>1438</ele>
        <time>2021-05-08T09:09:03.963Z</time>
      </trkpt>
      <trkpt lat="44.66601" lon="5.6551">
        <ele>1437</ele>
        <time>2021-05-08T09:09:33.899Z</time>
      </trkpt>
      <trkpt lat="44.66601" lon="5.65544">
        <ele>1433</ele>
        <time>2021-05-08T09:10:02.454Z</time>
      </trkpt>
      <trkpt lat="44.66579" lon="5.65659">
        <ele>1428</ele>
        <time>2021-05-08T09:11:43.858Z</time>
      </trkpt>
      <trkpt lat="44.66557" lon="5.65693">
        <ele>1420</ele>
        <time>2021-05-08T09:12:21.011Z</time>
      </trkpt>
      <trkpt lat="44.66487" lon="5.65699">
        <ele>1420</ele>
        <time>2021-05-08T09:13:41.284Z</time>
      </trkpt>
      <trkpt lat="44.66464" lon="5.65723">
        <ele>1412</ele>
        <time>2021-05-08T09:14:17.547Z</time>
      </trkpt>
      <trkpt lat="44.66428" lon="5.65743">
        <ele>1410</ele>
        <time>2021-05-08T09:15:02.804Z</time>
      </trkpt>
      <trkpt lat="44.66411" lon="5.65746">
        <ele>1409</ele>
        <time>2021-05-08T09:15:22.536Z</time>
      </trkpt>
      <trkpt lat="44.664" lon="5.65768">
        <ele>1405</ele>
        <time>2021-05-08T09:15:45.681Z</time>
      </trkpt>
      <trkpt lat="44.66379" lon="5.65773">
        <ele>1403</ele>
        <time>2021-05-08T09:16:10.454Z</time>
      </trkpt>
      <trkpt lat="44.66371" lon="5.65789">
        <ele>1402</ele>
        <time>2021-05-08T09:16:25.887Z</time>
      </trkpt>
      <trkpt lat="44.66343" lon="5.65793">
        <ele>1402</ele>
        <time>2021-05-08T09:16:57.236Z</time>
      </trkpt>
      <trkpt lat="44.66302" lon="5.65825">
        <ele>1402</ele>
        <time>2021-05-08T09:17:49.813Z</time>
      </trkpt>
      <trkpt lat="44.66289" lon="5.65823">
        <ele>1403</ele>
        <time>2021-05-08T09:18:05.860Z</time>
      </trkpt>
      <trkpt lat="44.66283" lon="5.65838">
        <ele>1403</ele>
        <time>2021-05-08T09:18:19.855Z</time>
      </trkpt>
      <trkpt lat="44.66292" lon="5.6586">
        <ele>1406</ele>
        <time>2021-05-08T09:18:41.533Z</time>
      </trkpt>
      <trkpt lat="44.66336" lon="5.65883">
        <ele>1406</ele>
        <time>2021-05-08T09:19:33.605Z</time>
      </trkpt>
      <trkpt lat="44.66329" lon="5.65899">
        <ele>1406</ele>
        <time>2021-05-08T09:19:48.252Z</time>
      </trkpt>
      <trkpt lat="44.66375" lon="5.65965">
        <ele>1406</ele>
        <time>2021-05-08T09:21:01.590Z</time>
      </trkpt>
      <trkpt lat="44.66421" lon="5.66049">
        <ele>1406</ele>
        <time>2021-05-08T09:22:25.137Z</time>
      </trkpt>
      <trkpt lat="44.66465" lon="5.66147">
        <ele>1404</ele>
        <time>2021-05-08T09:23:56.568Z</time>
      </trkpt>
      <trkpt lat="44.66523" lon="5.66246">
        <ele>1404</ele>
        <time>2021-05-08T09:25:38.660Z</time>
      </trkpt>
      <trkpt lat="44.66527" lon="5.66274">
        <ele>1402</ele>
        <time>2021-05-08T09:26:01.457Z</time>
      </trkpt>
      <trkpt lat="44.66521" lon="5.66323">
        <ele>1402</ele>
        <time>2021-05-08T09:26:41.625Z</time>
      </trkpt>
      <trkpt lat="44.66504" lon="5.66378">
        <ele>1403</ele>
        <time>2021-05-08T09:27:30.298Z</time>
      </trkpt>
      <trkpt lat="44.66485" lon="5.66415">
        <ele>1403</ele>
        <time>2021-05-08T09:28:05.847Z</time>
      </trkpt>
      <trkpt lat="44.6646" lon="5.66558">
        <ele>1402</ele>
        <time>2021-05-08T09:30:02.923Z</time>
      </trkpt>
      <trkpt lat="44.66479" lon="5.66594">
        <ele>1399</ele>
        <time>2021-05-08T09:30:38.032Z</time>
      </trkpt>
      <trkpt lat="44.66506" lon="5.66684">
        <ele>1399</ele>
        <time>2021-05-08T09:31:55.189Z</time>
      </trkpt>
      <trkpt lat="44.66477" lon="5.66741">
        <ele>1397</ele>
        <time>2021-05-08T09:32:50.250Z</time>
      </trkpt>
      <trkpt lat="44.66448" lon="5.66776">
        <ele>1396</ele>
        <time>2021-05-08T09:33:37.923Z</time>
      </trkpt>
      <trkpt lat="44.66418" lon="5.66854">
        <ele>1382</ele>
        <time>2021-05-08T09:35:17.404Z</time>
      </trkpt>
      <trkpt lat="44.66382" lon="5.66878">
        <ele>1373</ele>
        <time>2021-05-08T09:36:25.925Z</time>
      </trkpt>
      <trkpt lat="44.66339" lon="5.66935">
        <ele>1356</ele>
        <time>2021-05-08T09:37:44.147Z</time>
      </trkpt>
      <trkpt lat="44.66318" lon="5.66987">
        <ele>1356</ele>
        <time>2021-05-08T09:38:31.853Z</time>
      </trkpt>
      <trkpt lat="44.6624" lon="5.67205">
        <ele>1356</ele>
        <time>2021-05-08T09:42:01.138Z</time>
      </trkpt>
      <trkpt lat="44.66165" lon="5.67272">
        <ele>1368</ele>
        <time>2021-05-08T09:46:00.633Z</time>
      </trkpt>
      <trkpt lat="44.6604" lon="5.6716">
        <ele>1427</ele>
        <time>2021-05-08T09:54:04.150Z</time>
      </trkpt>
      <trkpt lat="44.65912" lon="5.66966">
        <ele>1490</ele>
        <time>2021-05-08T10:06:13.053Z</time>
      </trkpt>
      <trkpt lat="44.65869" lon="5.66702">
        <ele>1591</ele>
        <time>2021-05-08T10:21:13.832Z</time>
      </trkpt>
      <trkpt lat="44.65884" lon="5.66544">
        <ele>1649</ele>
        <time>2021-05-08T10:29:19.975Z</time>
      </trkpt>
      <trkpt lat="44.6591" lon="5.66438">
        <ele>1683</ele>
        <time>2021-05-08T10:33:32.077Z</time>
      </trkpt>
      <trkpt lat="44.6591" lon="5.6631">
        <ele>1709</ele>
        <time>2021-05-08T10:36:30.444Z</time>
      </trkpt>
      <trkpt lat="44.65856" lon="5.66207">
        <ele>1722</ele>
        <time>2021-05-08T10:38:25.790Z</time>
      </trkpt>
      <trkpt lat="44.65804" lon="5.6608">
        <ele>1724</ele>
        <time>2021-05-08T10:41:36.094Z</time>
      </trkpt>
      <trkpt lat="44.65725" lon="5.65913">
        <ele>1769</ele>
        <time>2021-05-08T10:47:11.595Z</time>
      </trkpt>
      <trkpt lat="44.6564" lon="5.65791">
        <ele>1793</ele>
        <time>2021-05-08T10:53:15.182Z</time>
      </trkpt>
      <trkpt lat="44.65567" lon="5.65552">
        <ele>1871</ele>
        <time>2021-05-08T11:01:49.286Z</time>
      </trkpt>
      <trkpt lat="44.65541" lon="5.65421">
        <ele>1880</ele>
        <time>2021-05-08T11:03:43.619Z</time>
      </trkpt>
      <trkpt lat="44.65522" lon="5.65181">
        <ele>1880</ele>
        <time>2021-05-08T11:06:55.150Z</time>
      </trkpt>
      <trkpt lat="44.65466" lon="5.65105">
        <ele>1880</ele>
        <time>2021-05-08T11:08:21.790Z</time>
      </trkpt>
      <trkpt lat="44.65405" lon="5.65051">
        <ele>1876</ele>
        <time>2021-05-08T11:09:47.834Z</time>
      </trkpt>
      <trkpt lat="44.65355" lon="5.65087">
        <ele>1866</ele>
        <time>2021-05-08T11:11:41.571Z</time>
      </trkpt>
      <trkpt lat="44.65258" lon="5.65242">
        <ele>1812</ele>
        <time>2021-05-08T11:16:57.949Z</time>
      </trkpt>
      <trkpt lat="44.65155" lon="5.65415">
        <ele>1763</ele>
        <time>2021-05-08T11:23:17.806Z</time>
      </trkpt>
      <trkpt lat="44.65081" lon="5.6557">
        <ele>1704</ele>
        <time>2021-05-08T11:28:22.845Z</time>
      </trkpt>
      <trkpt lat="44.65038" lon="5.65709">
        <ele>1677</ele>
        <time>2021-05-08T11:31:03.596Z</time>
      </trkpt>
      <trkpt lat="44.64959" lon="5.65895">
        <ele>1650</ele>
        <time>2021-05-08T11:34:30.789Z</time>
      </trkpt>
      <trkpt lat="44.64961" lon="5.65927">
        <ele>1647</ele>
        <time>2021-05-08T11:35:00.022Z</time>
      </trkpt>
      <trkpt lat="44.64991" lon="5.66019">
        <ele>1635</ele>
        <time>2021-05-08T11:36:44.392Z</time>
      </trkpt>
      <trkpt lat="44.65041" lon="5.66254">
        <ele>1599</ele>
        <time>2021-05-08T11:41:42.771Z</time>
      </trkpt>
      <trkpt lat="44.65026" lon="5.66375">
        <ele>1567</ele>
        <time>2021-05-08T11:44:52.177Z</time>
      </trkpt>
      <trkpt lat="44.65" lon="5.66493">
        <ele>1540</ele>
        <time>2021-05-08T11:47:54.790Z</time>
      </trkpt>
      <trkpt lat="44.64976" lon="5.66552">
        <ele>1523</ele>
        <time>2021-05-08T11:49:52.749Z</time>
      </trkpt>
      <trkpt lat="44.64942" lon="5.66602">
        <ele>1503</ele>
        <time>2021-05-08T11:51:53.396Z</time>
      </trkpt>
      <trkpt lat="44.64926" lon="5.66637">
        <ele>1493</ele>
        <time>2021-05-08T11:52:51.678Z</time>
      </trkpt>
      <trkpt lat="44.64923" lon="5.66668">
        <ele>1487</ele>
        <time>2021-05-08T11:53:31.871Z</time>
      </trkpt>
      <trkpt lat="44.64951" lon="5.66687">
        <ele>1478</ele>
        <time>2021-05-08T11:54:32.514Z</time>
      </trkpt>
      <trkpt lat="44.64986" lon="5.6669">
        <ele>1467</ele>
        <time>2021-05-08T11:56:02.055Z</time>
      </trkpt>
      <trkpt lat="44.65015" lon="5.6672">
        <ele>1450</ele>
        <time>2021-05-08T11:57:45.523Z</time>
      </trkpt>
      <trkpt lat="44.65063" lon="5.66823">
        <ele>1411</ele>
        <time>2021-05-08T12:02:12.019Z</time>
      </trkpt>
      <trkpt lat="44.65096" lon="5.66881">
        <ele>1384</ele>
        <time>2021-05-08T12:04:59.684Z</time>
      </trkpt>
      <trkpt lat="44.6513" lon="5.66896">
        <ele>1367</ele>
        <time>2021-05-08T12:06:47.263Z</time>
      </trkpt>
      <trkpt lat="44.65146" lon="5.66922">
        <ele>1356</ele>
        <time>2021-05-08T12:07:51.611Z</time>
      </trkpt>
      <trkpt lat="44.65169" lon="5.66997">
        <ele>1333</ele>
        <time>2021-05-08T12:09:56.994Z</time>
      </trkpt>
      <trkpt lat="44.65178" lon="5.67077">
        <ele>1317</ele>
        <time>2021-05-08T12:11:45.744Z</time>
      </trkpt>
      <trkpt lat="44.65194" lon="5.6712">
        <ele>1306</ele>
        <time>2021-05-08T12:12:47.364Z</time>
      </trkpt>
      <trkpt lat="44.65197" lon="5.67167">
        <ele>1298</ele>
        <time>2021-05-08T12:13:47.452Z</time>
      </trkpt>
      <trkpt lat="44.65271" lon="5.6736">
        <ele>1254</ele>
        <time>2021-05-08T12:18:32.426Z</time>
      </trkpt>
      <trkpt lat="44.65296" lon="5.67445">
        <ele>1235</ele>
        <time>2021-05-08T12:20:16.156Z</time>
      </trkpt>
      <trkpt lat="44.65343" lon="5.67564">
        <ele>1217</ele>
        <time>2021-05-08T12:22:16.790Z</time>
      </trkpt>
      <trkpt lat="44.65386" lon="5.67647">
        <ele>1211</ele>
        <time>2021-05-08T12:23:44.133Z</time>
      </trkpt>
      <trkpt lat="44.65423" lon="5.67698">
        <ele>1203</ele>
        <time>2021-05-08T12:25:14.562Z</time>
      </trkpt>
      <trkpt lat="44.65462" lon="5.67773">
        <ele>1179</ele>
        <time>2021-05-08T12:26:51.214Z</time>
      </trkpt>
      <trkpt lat="44.6552" lon="5.67818">
        <ele>1177</ele>
        <time>2021-05-08T12:28:10.762Z</time>
      </trkpt>
      <trkpt lat="44.6557" lon="5.67894">
        <ele>1162</ele>
        <time>2021-05-08T12:30:01.544Z</time>
      </trkpt>
      <trkpt lat="44.65619" lon="5.67956">
        <ele>1148</ele>
        <time>2021-05-08T12:31:22.148Z</time>
      </trkpt>
      <trkpt lat="44.65702" lon="5.68025">
        <ele>1141</ele>
        <time>2021-05-08T12:33:20.695Z</time>
      </trkpt>
      <trkpt lat="44.65795" lon="5.68136">
        <ele>1119</ele>
        <time>2021-05-08T12:35:55.507Z</time>
      </trkpt>
      <trkpt lat="44.65877" lon="5.68176">
        <ele>1109</ele>
        <time>2021-05-08T12:37:40.592Z</time>
      </trkpt>
      <trkpt lat="44.65905" lon="5.68204">
        <ele>1105</ele>
        <time>2021-05-08T12:38:18.923Z</time>
      </trkpt>
      <trkpt lat="44.65907" lon="5.68227">
        <ele>1104</ele>
        <time>2021-05-08T12:38:37.404Z</time>
      </trkpt>
      <trkpt lat="44.65924" lon="5.68188">
        <ele>1104</ele>
        <time>2021-05-08T12:39:15.356Z</time>
      </trkpt>
      <trkpt lat="44.65949" lon="5.68178">
        <ele>1105</ele>
        <time>2021-05-08T12:39:47.305Z</time>
      </trkpt>
      <trkpt lat="44.65967" lon="5.68109">
        <ele>1110</ele>
        <time>2021-05-08T12:41:05.188Z</time>
      </trkpt>
      <trkpt lat="44.65971" lon="5.6804">
        <ele>1118</ele>
        <time>2021-05-08T12:42:21.776Z</time>
      </trkpt>
      <trkpt lat="44.65988" lon="5.67975">
        <ele>1124</ele>
        <time>2021-05-08T12:43:44.719Z</time>
      </trkpt>
      <trkpt lat="44.66002" lon="5.67972">
        <ele>1127</ele>
        <time>2021-05-08T12:44:05.854Z</time>
      </trkpt>
      <trkpt lat="44.6601" lon="5.67954">
        <ele>1131</ele>
        <time>2021-05-08T12:44:29.915Z</time>
      </trkpt>
      <trkpt lat="44.66037" lon="5.67955">
        <ele>1132</ele>
        <time>2021-05-08T12:45:17.526Z</time>
      </trkpt>
      <trkpt lat="44.66069" lon="5.67878">
        <ele>1147</ele>
        <time>2021-05-08T12:47:16.893Z</time>
      </trkpt>
      <trkpt lat="44.66093" lon="5.67848">
        <ele>1151</ele>
        <time>2021-05-08T12:48:10.591Z</time>
      </trkpt>
      <trkpt lat="44.66143" lon="5.67807">
        <ele>1162</ele>
        <time>2021-05-08T12:49:54.416Z</time>
      </trkpt>
      <trkpt lat="44.66183" lon="5.67751">
        <ele>1172</ele>
        <time>2021-05-08T12:51:37.873Z</time>
      </trkpt>
      <trkpt lat="44.66206" lon="5.67636">
        <ele>1189</ele>
        <time>2021-05-08T12:54:03.907Z</time>
      </trkpt>
      <trkpt lat="44.66222" lon="5.67624">
        <ele>1190</ele>
        <time>2021-05-08T12:54:34.855Z</time>
      </trkpt>
      <trkpt lat="44.66239" lon="5.67598">
        <ele>1194</ele>
        <time>2021-05-08T12:55:33.900Z</time>
      </trkpt>
      <trkpt lat="44.66239" lon="5.6757">
        <ele>1202</ele>
        <time>2021-05-08T12:56:20.126Z</time>
      </trkpt>
      <trkpt lat="44.66257" lon="5.67547">
        <ele>1208</ele>
        <time>2021-05-08T12:57:03.969Z</time>
      </trkpt>
      <trkpt lat="44.66283" lon="5.67527">
        <ele>1212</ele>
        <time>2021-05-08T12:58:14.988Z</time>
      </trkpt>
      <trkpt lat="44.66301" lon="5.67481">
        <ele>1226</ele>
        <time>2021-05-08T12:59:58.481Z</time>
      </trkpt>
      <trkpt lat="44.66325" lon="5.67453">
        <ele>1233</ele>
        <time>2021-05-08T13:00:56.976Z</time>
      </trkpt>
      <trkpt lat="44.66373" lon="5.67374">
        <ele>1247</ele>
        <time>2021-05-08T13:02:44.195Z</time>
      </trkpt>
      <trkpt lat="44.66372" lon="5.6743">
        <ele>1247</ele>
        <time>2021-05-08T13:03:33.516Z</time>
      </trkpt>
      <trkpt lat="44.66425" lon="5.67517">
        <ele>1255</ele>
        <time>2021-05-08T13:05:12.218Z</time>
      </trkpt>
      <trkpt lat="44.66487" lon="5.67599">
        <ele>1255</ele>
        <time>2021-05-08T13:06:56.716Z</time>
      </trkpt>
      <trkpt lat="44.66437" lon="5.67491">
        <ele>1265</ele>
        <time>2021-05-08T13:09:14.328Z</time>
      </trkpt>
      <trkpt lat="44.66421" lon="5.67433">
        <ele>1273</ele>
        <time>2021-05-08T13:10:21.327Z</time>
      </trkpt>
      <trkpt lat="44.6642" lon="5.67403">
        <ele>1276</ele>
        <time>2021-05-08T13:10:53.577Z</time>
      </trkpt>
      <trkpt lat="44.66399" lon="5.67345">
        <ele>1280</ele>
        <time>2021-05-08T13:11:52.379Z</time>
      </trkpt>
      <trkpt lat="44.6641" lon="5.67318">
        <ele>1285</ele>
        <time>2021-05-08T13:12:20.469Z</time>
      </trkpt>
      <trkpt lat="44.66389" lon="5.67225">
        <ele>1286</ele>
        <time>2021-05-08T13:13:49.394Z</time>
      </trkpt>
      <trkpt lat="44.66373" lon="5.67207">
        <ele>1288</ele>
        <time>2021-05-08T13:14:14.883Z</time>
      </trkpt>
      <trkpt lat="44.66341" lon="5.67204">
        <ele>1295</ele>
        <time>2021-05-08T13:15:25.443Z</time>
      </trkpt>
      <trkpt lat="44.66341" lon="5.67173">
        <ele>1302</ele>
        <time>2021-05-08T13:16:14.224Z</time>
      </trkpt>
      <trkpt lat="44.66317" lon="5.67168">
        <ele>1307</ele>
        <time>2021-05-08T13:17:17.030Z</time>
      </trkpt>
      <trkpt lat="44.663" lon="5.67132">
        <ele>1318</ele>
        <time>2021-05-08T13:18:38.945Z</time>
      </trkpt>
      <trkpt lat="44.66308" lon="5.67081">
        <ele>1327</ele>
        <time>2021-05-08T13:20:16.928Z</time>
      </trkpt>
      <trkpt lat="44.66304" lon="5.67053">
        <ele>1334</ele>
        <time>2021-05-08T13:21:11.986Z</time>
      </trkpt>
      <trkpt lat="44.66306" lon="5.67001">
        <ele>1346</ele>
        <time>2021-05-08T13:22:29.485Z</time>
      </trkpt>
      <trkpt lat="44.66339" lon="5.66935">
        <ele>1356</ele>
        <time>2021-05-08T13:24:29.968Z</time>
      </trkpt>
      <trkpt lat="44.66382" lon="5.66878">
        <ele>1373</ele>
        <time>2021-05-08T13:26:49.806Z</time>
      </trkpt>
      <trkpt lat="44.66418" lon="5.66854">
        <ele>1382</ele>
        <time>2021-05-08T13:28:09.046Z</time>
      </trkpt>
      <trkpt lat="44.66448" lon="5.66776">
        <ele>1396</ele>
        <time>2021-05-08T13:29:46.791Z</time>
      </trkpt>
      <trkpt lat="44.66477" lon="5.66741">
        <ele>1396</ele>
        <time>2021-05-08T13:30:29.173Z</time>
      </trkpt>
      <trkpt lat="44.66506" lon="5.66684">
        <ele>1396</ele>
        <time>2021-05-08T13:31:29.387Z</time>
      </trkpt>
      <trkpt lat="44.66528" lon="5.66589">
        <ele>1381</ele>
        <time>2021-05-08T13:33:01.767Z</time>
      </trkpt>
      <trkpt lat="44.6662" lon="5.66331">
        <ele>1352</ele>
        <time>2021-05-08T13:37:18.436Z</time>
      </trkpt>
      <trkpt lat="44.66616" lon="5.66146">
        <ele>1332</ele>
        <time>2021-05-08T13:40:43.663Z</time>
      </trkpt>
      <trkpt lat="44.66713" lon="5.66125">
        <ele>1301</ele>
        <time>2021-05-08T13:43:37.389Z</time>
      </trkpt>
      <trkpt lat="44.66776" lon="5.66083">
        <ele>1286</ele>
        <time>2021-05-08T13:45:10.905Z</time>
      </trkpt>
      <trkpt lat="44.66858" lon="5.66107">
        <ele>1275</ele>
        <time>2021-05-08T13:46:51.493Z</time>
      </trkpt>
      <trkpt lat="44.66881" lon="5.66089">
        <ele>1273</ele>
        <time>2021-05-08T13:47:22.321Z</time>
      </trkpt>
      <trkpt lat="44.67031" lon="5.66059">
        <ele>1259</ele>
        <time>2021-05-08T13:50:23.323Z</time>
      </trkpt>
      <trkpt lat="44.67118" lon="5.65989">
        <ele>1245</ele>
        <time>2021-05-08T13:52:25.235Z</time>
      </trkpt>
      <trkpt lat="44.67172" lon="5.65996">
        <ele>1240</ele>
        <time>2021-05-08T13:53:25.555Z</time>
      </trkpt>
      <trkpt lat="44.67235" lon="5.66024">
        <ele>1237</ele>
        <time>2021-05-08T13:54:39.807Z</time>
      </trkpt>
      <trkpt lat="44.67302" lon="5.66022">
        <ele>1232</ele>
        <time>2021-05-08T13:55:55.736Z</time>
      </trkpt>
      <trkpt lat="44.67337" lon="5.66003">
        <ele>1230</ele>
        <time>2021-05-08T13:56:37.409Z</time>
      </trkpt>
      <trkpt lat="44.67378" lon="5.66013">
        <ele>1229</ele>
        <time>2021-05-08T13:57:25.644Z</time>
      </trkpt>
      <trkpt lat="44.67429" lon="5.66064">
        <ele>1221</ele>
        <time>2021-05-08T13:58:37.875Z</time>
      </trkpt>
      <trkpt lat="44.67495" lon="5.66232">
        <ele>1212</ele>
        <time>2021-05-08T14:01:12.018Z</time>
      </trkpt>
      <trkpt lat="44.6752" lon="5.66268">
        <ele>1210</ele>
        <time>2021-05-08T14:01:51.550Z</time>
      </trkpt>
      <trkpt lat="44.67555" lon="5.66287">
        <ele>1209</ele>
        <time>2021-05-08T14:02:34.724Z</time>
      </trkpt>
      <trkpt lat="44.67615" lon="5.66306">
        <ele>1202</ele>
        <time>2021-05-08T14:03:45.432Z</time>
      </trkpt>
      <trkpt lat="44.6764" lon="5.66331">
        <ele>1202</ele>
        <time>2021-05-08T14:04:19.619Z</time>
      </trkpt>
      <trkpt lat="44.6769" lon="5.66335">
        <ele>1198</ele>
        <time>2021-05-08T14:05:18.346Z</time>
      </trkpt>
      <trkpt lat="44.6772" lon="5.6635">
        <ele>1194</ele>
        <time>2021-05-08T14:05:55.204Z</time>
      </trkpt>
      <trkpt lat="44.6775" lon="5.66386">
        <ele>1192</ele>
        <time>2021-05-08T14:06:43.428Z</time>
      </trkpt>
      <trkpt lat="44.67771" lon="5.66401">
        <ele>1186</ele>
        <time>2021-05-08T14:07:15.254Z</time>
      </trkpt>
      <trkpt lat="44.67821" lon="5.66407">
        <ele>1179</ele>
        <time>2021-05-08T14:08:16.882Z</time>
      </trkpt>
      <trkpt lat="44.67857" lon="5.66389">
        <ele>1174</ele>
        <time>2021-05-08T14:09:05.707Z</time>
      </trkpt>
      <trkpt lat="44.67909" lon="5.6641">
        <ele>1165</ele>
        <time>2021-05-08T14:10:11.790Z</time>
      </trkpt>
      <trkpt lat="44.68025" lon="5.66393">
        <ele>1151</ele>
        <time>2021-05-08T14:12:30.335Z</time>
      </trkpt>
      <trkpt lat="44.68072" lon="5.66377">
        <ele>1148</ele>
        <time>2021-05-08T14:13:27.114Z</time>
      </trkpt>
      <trkpt lat="44.68123" lon="5.66386">
        <ele>1141</ele>
        <time>2021-05-08T14:14:26.770Z</time>
      </trkpt>
      <trkpt lat="44.68154" lon="5.66373">
        <ele>1140</ele>
        <time>2021-05-08T14:15:03.533Z</time>
      </trkpt>
      <trkpt lat="44.68184" lon="5.6639">
        <ele>1138</ele>
        <time>2021-05-08T14:15:41.255Z</time>
      </trkpt>
      <trkpt lat="44.68216" lon="5.66399">
        <ele>1133</ele>
        <time>2021-05-08T14:16:21.317Z</time>
      </trkpt>
      <trkpt lat="44.68249" lon="5.66386">
        <ele>1130</ele>
        <time>2021-05-08T14:16:59.364Z</time>
      </trkpt>
      <trkpt lat="44.68286" lon="5.66383">
        <ele>1130</ele>
        <time>2021-05-08T14:17:40.018Z</time>
      </trkpt>
      <trkpt lat="44.68338" lon="5.66425">
        <ele>1129</ele>
        <time>2021-05-08T14:18:46.787Z</time>
      </trkpt>
      <trkpt lat="44.68394" lon="5.66481">
        <ele>1125</ele>
        <time>2021-05-08T14:20:05.257Z</time>
      </trkpt>
      <trkpt lat="44.68448" lon="5.66491">
        <ele>1120</ele>
        <time>2021-05-08T14:21:06.643Z</time>
      </trkpt>
      <trkpt lat="44.68464" lon="5.66498">
        <ele>1120</ele>
        <time>2021-05-08T14:21:24.966Z</time>
      </trkpt>
      <trkpt lat="44.68464" lon="5.66478">
        <ele>1120</ele>
        <time>2021-05-08T14:21:40.816Z</time>
      </trkpt>
      <trkpt lat="44.68453" lon="5.66446">
        <ele>1120</ele>
        <time>2021-05-08T14:22:11.329Z</time>
      </trkpt>
      <trkpt lat="44.68435" lon="5.66319">
        <ele>1126</ele>
        <time>2021-05-08T14:24:11.769Z</time>
      </trkpt>
      <trkpt lat="44.68479" lon="5.66209">
        <ele>1137</ele>
        <time>2021-05-08T14:26:15.284Z</time>
      </trkpt>
      <trkpt lat="44.68493" lon="5.66197">
        <ele>1138</ele>
        <time>2021-05-08T14:26:37.427Z</time>
      </trkpt>
      <trkpt lat="44.68501" lon="5.66182">
        <ele>1139</ele>
        <time>2021-05-08T14:26:52.939Z</time>
      </trkpt>
      <trkpt lat="44.68511" lon="5.66179">
        <ele>1139</ele>
        <time>2021-05-08T14:27:06.000Z</time>
      </trkpt>
      <trkpt lat="44.68519" lon="5.66158">
        <ele>1140</ele>
        <time>2021-05-08T14:27:27.967Z</time>
      </trkpt>
      <trkpt lat="44.68545" lon="5.66136">
        <ele>1144</ele>
        <time>2021-05-08T14:28:22.227Z</time>
      </trkpt>
      <trkpt lat="44.68567" lon="5.66091">
        <ele>1153</ele>
        <time>2021-05-08T14:29:30.301Z</time>
      </trkpt>
      <trkpt lat="44.68629" lon="5.66026">
        <ele>1164</ele>
        <time>2021-05-08T14:31:29.368Z</time>
      </trkpt>
      <trkpt lat="44.68647" lon="5.66026">
        <ele>1164</ele>
        <time>2021-05-08T14:32:03.527Z</time>
      </trkpt>
      <trkpt lat="44.68661" lon="5.6601">
        <ele>1169</ele>
        <time>2021-05-08T14:32:42.259Z</time>
      </trkpt>
      <trkpt lat="44.6872" lon="5.65896">
        <ele>1196</ele>
        <time>2021-05-08T14:37:31.303Z</time>
      </trkpt>
      <trkpt lat="44.68718" lon="5.6588">
        <ele>1201</ele>
        <time>2021-05-08T14:38:03.167Z</time>
      </trkpt>
      <trkpt lat="44.6871" lon="5.6586">
        <ele>1210</ele>
        <time>2021-05-08T14:38:42.456Z</time>
      </trkpt>
      <trkpt lat="44.68712" lon="5.65837">
        <ele>1213</ele>
        <time>2021-05-08T14:39:13.898Z</time>
      </trkpt>
      <trkpt lat="44.68708" lon="5.65812">
        <ele>1213</ele>
        <time>2021-05-08T14:39:36.151Z</time>
      </trkpt>
      <trkpt lat="44.68712" lon="5.65804">
        <ele>1213</ele>
        <time>2021-05-08T14:39:43.948Z</time>
      </trkpt>
      <trkpt lat="44.68759" lon="5.65815">
        <ele>1214</ele>
        <time>2021-05-08T14:40:38.346Z</time>
      </trkpt>
      <trkpt lat="44.68781" lon="5.65802">
        <ele>1214</ele>
        <time>2021-05-08T14:41:08.852Z</time>
      </trkpt>
      <trkpt lat="44.68824" lon="5.65753">
        <ele>1221</ele>
        <time>2021-05-08T14:42:39.824Z</time>
      </trkpt>
      <trkpt lat="44.68851" lon="5.65742">
        <ele>1227</ele>
        <time>2021-05-08T14:43:49.111Z</time>
      </trkpt>
      <trkpt lat="44.68894" lon="5.65705">
        <ele>1243</ele>
        <time>2021-05-08T14:46:17.474Z</time>
      </trkpt>
      <trkpt lat="44.68915" lon="5.65663">
        <ele>1255</ele>
        <time>2021-05-08T14:47:41.383Z</time>
      </trkpt>
      <trkpt lat="44.68939" lon="5.6564">
        <ele>1260</ele>
        <time>2021-05-08T14:48:30.090Z</time>
      </trkpt>
      <trkpt lat="44.68972" lon="5.65596">
        <ele>1267</ele>
        <time>2021-05-08T14:49:44.994Z</time>
      </trkpt>
      <trkpt lat="44.69017" lon="5.6555">
        <ele>1276</ele>
        <time>2021-05-08T14:51:21.037Z</time>
      </trkpt>
      <trkpt lat="44.69053" lon="5.65505">
        <ele>1285</ele>
        <time>2021-05-08T14:52:46.892Z</time>
      </trkpt>
      <trkpt lat="44.69055" lon="5.65487">
        <ele>1287</ele>
        <time>2021-05-08T14:53:10.217Z</time>
      </trkpt>
      <trkpt lat="44.69074" lon="5.65476">
        <ele>1291</ele>
        <time>2021-05-08T14:53:50.996Z</time>
      </trkpt>
      <trkpt lat="44.69077" lon="5.65454">
        <ele>1294</ele>
        <time>2021-05-08T14:54:26.097Z</time>
      </trkpt>
      <trkpt lat="44.69089" lon="5.6545">
        <ele>1298</ele>
        <time>2021-05-08T14:54:55.407Z</time>
      </trkpt>
      <trkpt lat="44.69112" lon="5.65428">
        <ele>1306</ele>
        <time>2021-05-08T14:55:55.626Z</time>
      </trkpt>
      <trkpt lat="44.69127" lon="5.65428">
        <ele>1309</ele>
        <time>2021-05-08T14:56:30.962Z</time>
      </trkpt>
      <trkpt lat="44.69133" lon="5.65415">
        <ele>1311</ele>
        <time>2021-05-08T14:56:50.616Z</time>
      </trkpt>
    </trkseg>
  </trk>
</gpx>